Time;durP1;ratioP1;P1;durP2;ratioP2;P2;SDS_P1;SDS_P2;PMS_P1;PMS_P2;Temp;Humidity;BMP_temperature;BMP_pressure;BME280_temperature;BME280_humidity;BME280_pressure;Samples;Min_cycle;Max_cycle;Signal;HPM_P1;HPM_P2
2021/06/17 00:00:21;;;;;;;8.73;3.80;;;12.50;99.90;;;;;;5042279;28;20291;-75
2021/06/17 00:02:48;;;;;;;16.90;4.22;;;12.50;99.90;;;;;;5037395;28;20725;-75
2021/06/17 00:05:16;;;;;;;7.68;3.92;;;12.50;99.90;;;;;;5043146;28;20208;-75
2021/06/17 00:07:42;;;;;;;6.80;3.70;;;12.50;99.90;;;;;;5043315;28;20337;-75
2021/06/17 00:10:17;;;;;;;7.50;4.00;;;12.50;99.90;;;;;;5025844;28;20597;-75
2021/06/17 00:12:43;;;;;;;9.48;3.60;;;12.40;99.90;;;;;;5026122;28;20189;-75
2021/06/17 00:15:10;;;;;;;10.15;4.30;;;12.40;99.90;;;;;;5042637;28;20208;-75
2021/06/17 00:17:36;;;;;;;7.15;3.88;;;12.40;99.90;;;;;;5026379;28;20217;-76
2021/06/17 00:20:05;;;;;;;11.63;4.22;;;12.40;99.90;;;;;;5024567;28;20753;-75
2021/06/17 00:22:31;;;;;;;13.88;4.00;;;12.40;99.90;;;;;;5042733;28;20204;-75
2021/06/17 00:24:57;;;;;;;9.90;4.53;;;12.30;99.90;;;;;;5042173;28;20190;-75
2021/06/17 00:27:22;;;;;;;7.22;3.75;;;12.30;99.90;;;;;;5044039;28;20193;-75
2021/06/17 00:29:48;;;;;;;9.63;3.90;;;12.30;99.90;;;;;;5029440;28;20197;-75
2021/06/17 00:32:14;;;;;;;10.60;4.22;;;12.20;99.90;;;;;;5026206;28;21183;-75
2021/06/17 00:34:39;;;;;;;5.97;3.60;;;12.20;99.90;;;;;;5030126;28;20193;-75
2021/06/17 00:37:05;;;;;;;10.02;3.85;;;12.20;99.90;;;;;;5030112;28;20284;-75
2021/06/17 00:39:31;;;;;;;11.32;3.88;;;12.10;99.90;;;;;;5046750;28;20263;-75
2021/06/17 00:41:56;;;;;;;6.43;3.75;;;12.20;99.90;;;;;;5047941;28;20209;-76
2021/06/17 00:44:22;;;;;;;9.70;4.00;;;12.20;99.90;;;;;;5026099;28;20206;-75
2021/06/17 00:46:48;;;;;;;8.35;4.18;;;12.10;99.90;;;;;;5044135;28;20204;-75
2021/06/17 00:49:14;;;;;;;10.10;4.50;;;12.10;99.90;;;;;;5025044;28;20225;-75
2021/06/17 00:51:39;;;;;;;10.60;3.78;;;12.00;99.90;;;;;;5045558;28;20205;-75
2021/06/17 00:54:05;;;;;;;6.45;3.83;;;11.90;99.90;;;;;;5027233;28;20205;-75
2021/06/17 00:56:31;;;;;;;10.90;4.07;;;11.90;99.90;;;;;;5043155;28;20201;-75
2021/06/17 00:58:58;;;;;;;10.40;4.32;;;11.80;99.90;;;;;;5027016;28;20222;-75
2021/06/17 01:01:24;;;;;;;7.53;3.78;;;11.80;99.90;;;;;;5026237;28;20251;-75
2021/06/17 01:03:50;;;;;;;11.20;4.30;;;11.70;99.90;;;;;;5027307;28;20205;-76
2021/06/17 01:06:16;;;;;;;9.00;4.22;;;11.70;99.90;;;;;;5028125;28;20249;-75
2021/06/17 01:08:47;;;;;;;8.73;4.50;;;11.70;99.90;;;;;;5027028;28;20201;-75
2021/06/17 01:11:31;;;;;;;9.32;3.78;;;11.60;99.90;;;;;;5045168;28;20221;-75
2021/06/17 01:14:13;;;;;;;15.73;4.45;;;11.60;99.90;;;;;;5027460;28;20200;-75
2021/06/17 01:16:54;;;;;;;11.48;5.00;;;11.60;99.90;;;;;;5043835;28;20197;-75
2021/06/17 01:19:31;;;;;;;9.00;4.50;;;11.60;99.90;;;;;;5044566;28;21227;-75
2021/06/17 01:22:21;;;;;;;15.25;4.38;;;11.50;99.90;;;;;;5029424;28;20193;-75
2021/06/17 01:25:11;;;;;;;10.43;4.10;;;11.50;99.90;;;;;;5028119;28;20252;-75
2021/06/17 01:27:58;;;;;;;9.15;3.70;;;11.40;99.90;;;;;;5047282;28;20200;-75
2021/06/17 01:30:26;;;;;;;12.90;5.13;;;11.40;99.90;;;;;;5044317;28;20204;-75
2021/06/17 01:33:01;;;;;;;11.85;4.18;;;11.30;99.90;;;;;;5027288;28;20197;-75
2021/06/17 01:35:31;;;;;;;11.25;4.50;;;11.30;99.90;;;;;;5043309;28;20192;-75
2021/06/17 01:38:00;;;;;;;10.00;4.30;;;11.20;99.90;;;;;;5047203;28;20246;-75
2021/06/17 01:40:29;;;;;;;12.20;4.03;;;11.20;99.90;;;;;;5044122;28;20202;-75
2021/06/17 01:42:56;;;;;;;12.02;4.95;;;11.20;99.90;;;;;;5047258;28;20198;-75
2021/06/17 01:45:24;;;;;;;8.77;4.78;;;11.20;99.90;;;;;;5026029;28;20196;-75
2021/06/17 01:47:52;;;;;;;12.75;4.38;;;11.30;99.90;;;;;;5046097;28;20246;-75
2021/06/17 01:50:22;;;;;;;7.78;4.10;;;11.30;99.90;;;;;;5045362;28;20209;-75
2021/06/17 01:52:50;;;;;;;11.93;4.57;;;11.30;99.90;;;;;;5028701;28;20666;-75
2021/06/17 01:55:17;;;;;;;12.15;4.68;;;11.30;99.90;;;;;;5025445;28;20197;-75
2021/06/17 01:57:43;;;;;;;10.88;4.22;;;11.30;99.90;;;;;;5044331;28;20305;-74
2021/06/17 02:00:10;;;;;;;16.45;5.05;;;11.30;99.90;;;;;;5042068;28;20653;-75
2021/06/17 02:02:37;;;;;;;10.07;4.40;;;11.30;99.90;;;;;;5043210;28;20205;-74
2021/06/17 02:05:04;;;;;;;10.18;4.18;;;11.30;99.90;;;;;;5028737;28;20813;-75
2021/06/17 02:07:30;;;;;;;9.63;4.78;;;11.30;99.90;;;;;;5043863;28;20225;-75
2021/06/17 02:09:57;;;;;;;9.35;4.43;;;11.30;99.90;;;;;;5045414;28;20198;-75
2021/06/17 02:12:22;;;;;;;7.93;4.03;;;11.20;99.90;;;;;;5045739;28;20256;-75
2021/06/17 02:14:50;;;;;;;10.70;4.53;;;11.10;99.90;;;;;;5041755;28;20221;-74
2021/06/17 02:17:18;;;;;;;16.75;4.20;;;11.10;99.90;;;;;;5046112;28;20200;-74
2021/06/17 02:19:44;;;;;;;11.88;4.22;;;11.00;99.90;;;;;;5025552;28;20201;-74
2021/06/17 02:22:10;;;;;;;8.05;4.65;;;11.00;99.90;;;;;;5044647;28;20247;-75
2021/06/17 02:24:39;;;;;;;9.52;4.60;;;10.90;99.90;;;;;;5044921;28;20206;-75
2021/06/17 02:27:17;;;;;;;7.93;4.68;;;10.90;99.90;;;;;;5045684;28;20602;-74
2021/06/17 02:29:46;;;;;;;10.65;4.47;;;10.80;99.90;;;;;;5042823;28;20193;-74
2021/06/17 02:32:21;;;;;;;9.02;4.30;;;10.70;99.90;;;;;;5026163;28;20220;-75
2021/06/17 02:34:49;;;;;;;10.60;4.38;;;10.70;99.90;;;;;;5026840;28;20523;-75
2021/06/17 02:37:17;;;;;;;11.63;4.90;;;10.70;99.90;;;;;;5044548;28;20189;-75
2021/06/17 02:39:45;;;;;;;11.18;4.95;;;10.70;99.90;;;;;;5026111;28;20664;-75
2021/06/17 02:42:15;;;;;;;10.13;4.90;;;10.60;99.90;;;;;;5025086;28;20208;-75
2021/06/17 02:44:43;;;;;;;11.63;4.90;;;10.50;99.90;;;;;;5026058;28;20615;-75
2021/06/17 02:47:09;;;;;;;8.18;4.32;;;10.50;99.90;;;;;;5045432;28;20252;-75
2021/06/17 02:49:37;;;;;;;9.50;4.25;;;10.50;99.90;;;;;;5026539;28;20201;-75
2021/06/17 02:52:03;;;;;;;9.55;4.38;;;10.50;99.90;;;;;;5027800;28;20197;-75
2021/06/17 02:54:29;;;;;;;9.18;4.25;;;10.50;99.90;;;;;;5044132;28;20209;-75
2021/06/17 02:57:16;;;;;;;7.60;4.10;;;10.50;99.90;;;;;;5024555;28;20212;-75
2021/06/17 02:59:42;;;;;;;11.65;4.55;;;10.50;99.90;;;;;;5043579;28;20198;-75
2021/06/17 03:02:16;;;;;;;6.93;3.90;;;10.50;99.90;;;;;;5044166;28;20541;-75
2021/06/17 03:04:48;;;;;;;7.13;4.32;;;10.50;99.90;;;;;;5041722;28;20205;-75
2021/06/17 03:07:21;;;;;;;12.93;4.15;;;10.60;99.90;;;;;;5042319;28;20221;-75
2021/06/17 03:09:50;;;;;;;8.00;4.43;;;10.70;99.90;;;;;;5023045;28;20247;-75
2021/06/17 03:12:21;;;;;;;9.82;4.00;;;10.80;99.90;;;;;;5024467;28;20680;-75
2021/06/17 03:14:49;;;;;;;9.82;4.90;;;10.90;99.90;;;;;;5042559;28;20659;-75
2021/06/17 03:17:17;;;;;;;10.38;4.40;;;11.00;99.90;;;;;;5041623;28;20200;-75
2021/06/17 03:19:46;;;;;;;12.68;4.47;;;11.10;99.90;;;;;;5043154;28;20205;-75
2021/06/17 03:22:14;;;;;;;7.60;4.50;;;11.20;99.90;;;;;;5040336;28;20722;-75
2021/06/17 03:24:42;;;;;;;9.20;4.85;;;11.20;99.90;;;;;;5036674;28;20197;-75
2021/06/17 03:27:09;;;;;;;7.63;4.10;;;11.30;99.90;;;;;;5041689;28;20205;-75
2021/06/17 03:29:38;;;;;;;12.68;4.82;;;11.40;99.90;;;;;;5038838;28;20553;-75
2021/06/17 03:32:07;;;;;;;7.85;4.25;;;11.50;99.90;;;;;;5021002;28;20207;-75
2021/06/17 03:34:34;;;;;;;12.52;5.05;;;11.50;99.90;;;;;;5021766;28;20204;-75
2021/06/17 03:37:01;;;;;;;10.00;5.07;;;11.60;99.90;;;;;;5040893;28;20727;-75
2021/06/17 03:39:28;;;;;;;11.50;5.50;;;11.70;99.90;;;;;;5040181;28;20193;-75
2021/06/17 03:41:56;;;;;;;11.32;4.95;;;11.80;99.90;;;;;;5040500;28;20208;-75
2021/06/17 03:44:24;;;;;;;8.35;5.10;;;11.90;99.90;;;;;;5037091;28;20206;-75
2021/06/17 03:46:51;;;;;;;10.57;4.72;;;12.00;99.90;;;;;;5016830;28;20292;-75
2021/06/17 03:49:20;;;;;;;12.52;5.00;;;12.10;99.90;;;;;;5036296;28;20202;-74
2021/06/17 03:51:45;;;;;;;10.65;4.78;;;12.20;99.90;;;;;;5019376;28;20682;-75
2021/06/17 03:54:23;;;;;;;9.98;5.32;;;12.30;99.90;;;;;;5038668;28;20214;-75
2021/06/17 03:56:53;;;;;;;8.15;5.03;;;12.40;99.90;;;;;;5036994;28;20197;-75
2021/06/17 03:59:22;;;;;;;8.20;4.90;;;12.50;99.90;;;;;;5018190;28;20838;-75
2021/06/17 04:01:47;;;;;;;10.80;4.97;;;12.60;99.90;;;;;;5036041;28;20197;-75
2021/06/17 04:04:13;;;;;;;12.30;5.15;;;12.70;99.90;;;;;;5016823;28;20209;-75
2021/06/17 04:06:40;;;;;;;10.10;4.85;;;12.80;99.90;;;;;;5032938;28;20221;-75
2021/06/17 04:09:06;;;;;;;12.68;4.82;;;12.90;99.90;;;;;;5035327;28;20200;-75
2021/06/17 04:11:32;;;;;;;12.95;5.05;;;13.00;99.90;;;;;;5034785;28;21094;-76
2021/06/17 04:13:58;;;;;;;10.15;5.38;;;13.10;99.90;;;;;;5023619;28;20194;-75
2021/06/17 04:16:28;;;;;;;7.65;4.40;;;13.30;99.90;;;;;;5014388;28;20228;-76
2021/06/17 04:18:56;;;;;;;14.88;4.38;;;13.40;99.90;;;;;;5016253;28;20201;-75
2021/06/17 04:21:23;;;;;;;6.63;3.58;;;13.60;99.90;;;;;;5035784;28;20229;-75
2021/06/17 04:23:54;;;;;;;7.60;3.92;;;13.80;99.90;;;;;;5021673;28;20204;-75
2021/06/17 04:26:22;;;;;;;10.05;4.20;;;13.90;99.90;;;;;;5041013;28;20197;-75
2021/06/17 04:28:48;;;;;;;10.50;4.47;;;14.10;99.90;;;;;;5041584;28;20207;-75
2021/06/17 04:31:16;;;;;;;8.00;4.15;;;14.20;99.90;;;;;;5020875;28;20213;-75
2021/06/17 04:33:43;;;;;;;8.55;4.35;;;14.30;99.90;;;;;;5041170;28;20205;-75
2021/06/17 04:36:10;;;;;;;8.27;4.13;;;14.40;99.90;;;;;;5042223;28;20190;-75
2021/06/17 04:38:38;;;;;;;8.82;4.45;;;14.40;99.90;;;;;;5044408;28;20201;-76
2021/06/17 04:41:06;;;;;;;9.57;4.70;;;14.50;99.90;;;;;;5040830;28;20228;-76
2021/06/17 04:43:34;;;;;;;8.10;4.38;;;14.70;99.90;;;;;;5010421;28;20640;-75
2021/06/17 04:46:00;;;;;;;10.98;4.30;;;14.80;99.90;;;;;;5037351;28;20205;-75
2021/06/17 04:48:27;;;;;;;9.35;4.63;;;14.90;99.90;;;;;;5038169;28;20213;-75
2021/06/17 04:50:54;;;;;;;6.70;4.30;;;14.90;99.90;;;;;;5040345;28;20201;-75
2021/06/17 04:53:20;;;;;;;12.25;4.47;;;15.00;99.90;;;;;;5034008;28;20533;-75
2021/06/17 04:55:51;;;;;;;10.90;4.57;;;15.10;99.90;;;;;;5035559;28;20276;-75
2021/06/17 04:58:19;;;;;;;9.27;4.20;;;15.20;99.90;;;;;;5038940;28;20206;-76
2021/06/17 05:00:46;;;;;;;9.05;4.38;;;15.40;99.90;;;;;;5018573;28;20572;-75
2021/06/17 05:03:12;;;;;;;10.45;4.82;;;15.40;99.90;;;;;;5035420;28;20205;-75
2021/06/17 05:05:37;;;;;;;9.25;4.30;;;15.50;99.90;;;;;;5021881;28;20216;-75
2021/06/17 05:10:48;;;;;;;6.30;3.88;;;15.60;99.90;;;;;;5039618;28;20237;-75
2021/06/17 05:13:14;;;;;;;6.43;3.95;;;15.80;99.90;;;;;;5040972;28;20251;-76
2021/06/17 05:15:40;;;;;;;10.43;3.88;;;16.00;99.90;;;;;;5038845;28;20864;-75
2021/06/17 05:18:06;;;;;;;11.32;4.28;;;16.10;99.90;;;;;;5043839;28;20282;-76
2021/06/17 05:20:31;;;;;;;11.20;4.30;;;16.10;99.90;;;;;;5042370;28;20277;-75
2021/06/17 05:22:57;;;;;;;12.65;4.03;;;16.20;99.90;;;;;;5042047;28;20664;-75
2021/06/17 05:25:23;;;;;;;7.82;4.10;;;16.20;99.90;;;;;;5041066;28;20204;-75
2021/06/17 05:27:49;;;;;;;9.98;4.13;;;16.30;99.90;;;;;;5044133;28;20225;-75
2021/06/17 05:30:15;;;;;;;9.57;3.75;;;16.50;99.90;;;;;;5041878;28;20615;-75
2021/06/17 05:32:44;;;;;;;7.95;3.95;;;16.70;99.90;;;;;;5041230;28;20245;-75
2021/06/17 05:35:10;;;;;;;8.95;4.03;;;16.90;99.90;;;;;;5018831;28;22025;-75
2021/06/17 05:37:36;;;;;;;10.82;4.03;;;17.00;99.90;;;;;;5042033;28;20214;-76
2021/06/17 05:40:02;;;;;;;10.90;4.38;;;17.00;99.90;;;;;;5012177;28;20205;-75
2021/06/17 05:42:28;;;;;;;9.15;4.15;;;17.20;99.90;;;;;;5037285;28;20198;-75
2021/06/17 05:44:54;;;;;;;12.77;3.95;;;17.40;99.90;;;;;;5021030;28;20275;-75
2021/06/17 05:47:20;;;;;;;13.35;4.28;;;17.40;99.90;;;;;;5031015;28;20233;-75
2021/06/17 05:49:46;;;;;;;9.15;4.43;;;17.60;99.90;;;;;;5038333;28;20190;-76
2021/06/17 05:52:11;;;;;;;9.45;4.10;;;17.70;99.90;;;;;;5037518;28;20943;-75
2021/06/17 05:54:37;;;;;;;12.85;3.88;;;17.70;99.90;;;;;;5039382;28;20297;-75
2021/06/17 05:57:03;;;;;;;6.68;3.50;;;17.70;99.90;;;;;;5034259;28;20218;-75
2021/06/17 05:59:28;;;;;;;7.28;3.42;;;17.80;99.90;;;;;;5037397;28;20193;-75
2021/06/17 06:01:54;;;;;;;8.00;3.20;;;17.90;99.90;;;;;;5039728;28;20243;-75
2021/06/17 06:04:20;;;;;;;8.32;3.13;;;17.90;99.90;;;;;;5037419;28;21053;-76
2021/06/17 06:06:45;;;;;;;5.93;2.95;;;18.00;99.90;;;;;;5035443;28;20334;-76
2021/06/17 06:09:11;;;;;;;7.03;2.92;;;18.20;99.90;;;;;;5041083;28;20205;-75
2021/06/17 06:11:38;;;;;;;7.20;2.90;;;18.40;99.90;;;;;;5036441;28;20290;-76
2021/06/17 06:14:03;;;;;;;5.63;2.88;;;18.60;99.90;;;;;;5038883;28;20267;-75
2021/06/17 06:16:29;;;;;;;4.60;2.72;;;18.50;99.90;;;;;;5033921;28;20193;-76
2021/06/17 06:18:55;;;;;;;6.75;2.25;;;18.50;99.90;;;;;;5017722;28;20201;-76
2021/06/17 06:21:21;;;;;;;5.45;2.67;;;18.50;99.90;;;;;;5017742;28;20606;-75
2021/06/17 06:23:46;;;;;;;4.95;2.20;;;18.60;99.90;;;;;;5038744;28;20688;-75
2021/06/17 06:26:12;;;;;;;8.00;2.42;;;18.80;99.90;;;;;;5019763;28;20980;-76
2021/06/17 06:28:38;;;;;;;7.97;2.45;;;18.80;99.90;;;;;;5040796;28;20202;-76
2021/06/17 06:31:04;;;;;;;6.35;2.38;;;18.80;99.90;;;;;;5032727;28;20201;-75
2021/06/17 06:33:30;;;;;;;5.57;2.35;;;18.90;99.90;;;;;;5034461;28;20276;-75
2021/06/17 06:35:55;;;;;;;3.60;1.83;;;19.20;99.90;;;;;;5015362;28;20189;-75
2021/06/17 06:38:21;;;;;;;6.00;2.10;;;19.40;99.90;;;;;;5030952;28;20221;-76
2021/06/17 06:40:47;;;;;;;6.60;2.30;;;19.60;99.90;;;;;;5033726;28;20198;-75
2021/06/17 06:43:15;;;;;;;5.32;1.98;;;19.70;99.90;;;;;;5039380;28;20201;-76
2021/06/17 06:45:41;;;;;;;9.77;2.15;;;19.80;99.90;;;;;;5019859;28;21067;-75
2021/06/17 06:48:07;;;;;;;7.53;1.90;;;20.00;99.90;;;;;;5019921;28;20212;-76
2021/06/17 06:50:34;;;;;;;8.02;2.10;;;20.00;99.90;;;;;;5034483;28;20216;-75
2021/06/17 06:52:59;;;;;;;8.48;2.63;;;20.10;99.90;;;;;;5035781;28;20300;-76
2021/06/17 06:55:25;;;;;;;3.22;2.30;;;20.00;99.90;;;;;;5038513;28;20296;-76
2021/06/17 06:57:54;;;;;;;9.70;2.30;;;19.90;99.90;;;;;;5016382;28;20606;-75
2021/06/17 07:00:20;;;;;;;9.80;2.00;;;19.80;99.90;;;;;;5034004;28;20862;-75
2021/06/17 07:02:46;;;;;;;8.50;3.13;;;19.90;99.90;;;;;;5034230;28;20198;-75
2021/06/17 07:05:12;;;;;;;6.95;2.20;;;19.90;99.90;;;;;;5038219;28;20267;-75
2021/06/17 07:07:39;;;;;;;6.70;2.20;;;20.10;99.90;;;;;;5035497;28;20224;-74
2021/06/17 07:10:07;;;;;;;6.07;2.22;;;20.10;99.90;;;;;;5036007;28;20198;-74
2021/06/17 07:12:32;;;;;;;7.53;2.20;;;20.20;99.90;;;;;;5018363;28;20688;-74
2021/06/17 07:14:59;;;;;;;5.10;2.00;;;20.10;99.90;;;;;;5032735;28;20202;-74
2021/06/17 07:17:24;;;;;;;5.13;1.92;;;20.20;99.90;;;;;;5021511;28;20647;-74
2021/06/17 07:19:52;;;;;;;8.27;1.85;;;20.30;99.90;;;;;;5033325;28;20203;-75
2021/06/17 07:22:17;;;;;;;5.57;2.00;;;20.60;99.90;;;;;;5031496;28;20218;-75
2021/06/17 07:24:44;;;;;;;7.10;2.20;;;20.70;99.90;;;;;;5031710;28;20259;-74
2021/06/17 07:27:09;;;;;;;6.43;1.90;;;20.80;99.90;;;;;;5032079;28;20790;-75
2021/06/17 07:29:35;;;;;;;3.78;1.98;;;20.80;99.90;;;;;;5018292;28;20301;-74
2021/06/17 07:32:03;;;;;;;3.78;2.00;;;20.80;99.90;;;;;;5034489;28;20213;-74
2021/06/17 07:34:28;;;;;;;7.85;2.20;;;21.10;99.90;;;;;;5015969;28;20216;-75
2021/06/17 07:36:54;;;;;;;7.32;1.88;;;21.20;99.90;;;;;;5029146;28;20193;-74
2021/06/17 07:39:20;;;;;;;11.10;2.47;;;21.30;99.90;;;;;;5014106;28;20194;-75
2021/06/17 07:41:46;;;;;;;7.80;2.17;;;21.60;99.90;;;;;;5015304;28;20252;-75
2021/06/17 07:44:11;;;;;;;5.53;2.00;;;21.80;99.90;;;;;;5033576;28;20547;-76
2021/06/17 07:46:38;;;;;;;10.50;2.40;;;21.90;99.90;;;;;;5019953;28;20204;-75
2021/06/17 07:49:04;;;;;;;7.10;2.15;;;22.10;99.90;;;;;;5011394;28;20201;-75
2021/06/17 07:51:31;;;;;;;4.25;1.60;;;22.30;99.90;;;;;;5014118;28;20252;-75
2021/06/17 07:53:59;;;;;;;8.75;2.10;;;22.50;99.90;;;;;;5017309;28;20293;-70
2021/06/17 07:56:30;;;;;;;6.07;2.10;;;22.50;99.90;;;;;;5033089;28;20197;-69
2021/06/17 07:58:57;;;;;;;7.35;1.90;;;22.50;99.90;;;;;;5011850;28;20194;-70
2021/06/17 08:01:23;;;;;;;6.35;2.05;;;22.90;99.90;;;;;;5028031;28;20255;-73
2021/06/17 08:03:50;;;;;;;8.82;2.10;;;22.90;99.90;;;;;;5013684;28;20562;-71
2021/06/17 08:06:16;;;;;;;3.08;1.73;;;23.00;99.90;;;;;;5033045;28;20232;-70
2021/06/17 08:08:42;;;;;;;6.90;1.67;;;23.20;99.90;;;;;;5035981;28;20198;-69
2021/06/17 08:11:08;;;;;;;4.40;1.85;;;23.50;99.90;;;;;;5034805;28;20205;-71
2021/06/17 08:13:34;;;;;;;2.80;1.75;;;23.50;99.90;;;;;;5035816;28;20197;-71
2021/06/17 08:16:00;;;;;;;4.90;1.80;;;23.70;99.90;;;;;;5032553;28;20206;-70
2021/06/17 08:18:25;;;;;;;6.55;1.75;;;24.00;99.00;;;;;;5034920;28;20705;-71
2021/06/17 08:20:54;;;;;;;3.28;1.60;;;24.20;98.00;;;;;;5015815;28;20216;-73
2021/06/17 08:23:21;;;;;;;5.10;1.80;;;24.30;98.30;;;;;;5028674;28;20205;-69
2021/06/17 08:25:48;;;;;;;5.55;1.88;;;24.50;96.10;;;;;;5032754;28;20259;-70
2021/06/17 08:28:14;;;;;;;2.85;1.65;;;24.50;95.50;;;;;;5014842;28;20209;-71
2021/06/17 08:30:39;;;;;;;7.35;2.25;;;24.70;96.50;;;;;;5013158;28;20772;-71
2021/06/17 08:33:05;;;;;;;5.85;1.83;;;24.50;94.10;;;;;;5032832;28;20201;-70
2021/06/17 08:35:31;;;;;;;3.08;1.73;;;24.50;95.50;;;;;;5013776;28;20197;-70
2021/06/17 08:37:58;;;;;;;6.88;1.90;;;24.70;94.60;;;;;;5038383;28;20202;-70
2021/06/17 08:40:30;;;;;;;6.95;1.73;;;24.50;93.80;;;;;;5019310;28;20645;-72
2021/06/17 08:42:59;;;;;;;6.00;1.50;;;24.30;94.10;;;;;;5034934;28;20284;-71
2021/06/17 08:45:26;;;;;;;4.53;1.50;;;24.60;94.80;;;;;;5030471;28;20189;-70
2021/06/17 08:47:52;;;;;;;3.22;1.60;;;24.70;93.30;;;;;;5019137;28;20208;-73
2021/06/17 08:50:18;;;;;;;7.60;2.28;;;24.60;93.00;;;;;;5037113;28;20256;-69
2021/06/17 08:52:46;;;;;;;3.92;1.70;;;24.70;92.80;;;;;;5023507;28;20340;-69
2021/06/17 08:55:16;;;;;;;4.18;1.70;;;24.70;95.30;;;;;;5036358;28;20212;-71
2021/06/17 08:57:43;;;;;;;3.50;1.70;;;24.60;93.60;;;;;;5039349;28;20189;-70
2021/06/17 09:00:21;;;;;;;6.15;1.88;;;24.30;92.80;;;;;;5038374;28;20197;-73
2021/06/17 09:03:01;;;;;;;7.40;2.22;;;24.60;92.80;;;;;;5011318;28;20732;-73
2021/06/17 09:05:28;;;;;;;5.35;1.67;;;24.70;91.40;;;;;;5019886;28;20255;-74
2021/06/17 09:07:55;;;;;;;6.43;1.80;;;24.80;92.50;;;;;;5033164;28;20206;-71
2021/06/17 09:10:21;;;;;;;7.22;2.00;;;25.00;94.50;;;;;;5018631;28;20550;-73
2021/06/17 09:12:53;;;;;;;7.90;2.20;;;25.10;93.30;;;;;;5038471;28;20213;-72
2021/06/17 09:15:37;;;;;;;7.50;2.05;;;25.20;92.10;;;;;;5036914;28;20221;-70
2021/06/17 09:18:20;;;;;;;4.38;1.77;;;25.10;91.80;;;;;;5030764;28;20198;-71
2021/06/17 09:20:57;;;;;;;5.28;1.83;;;25.20;92.00;;;;;;5036820;28;20193;-72
2021/06/17 09:23:34;;;;;;;3.83;1.60;;;25.00;90.50;;;;;;5020685;28;20292;-73
2021/06/17 09:26:16;;;;;;;5.65;1.88;;;25.10;91.40;;;;;;5036437;28;20789;-73
2021/06/17 09:28:47;;;;;;;6.05;2.00;;;25.20;90.90;;;;;;5017076;28;20849;-70
2021/06/17 09:31:44;;;;;;;4.20;1.70;;;25.10;90.60;;;;;;5037179;28;20206;-73
2021/06/17 09:34:11;;;;;;;3.55;1.73;;;25.20;91.30;;;;;;5008655;28;20217;-74
2021/06/17 09:36:39;;;;;;;6.45;1.95;;;25.30;92.50;;;;;;5025308;28;20193;-73
2021/06/17 09:39:09;;;;;;;6.28;1.83;;;25.60;91.50;;;;;;5039118;28;20613;-70
2021/06/17 09:41:39;;;;;;;7.65;2.15;;;26.10;91.20;;;;;;5021683;28;20243;-73
2021/06/17 09:44:30;;;;;;;6.03;1.95;;;26.00;89.10;;;;;;5021205;28;20206;-70
2021/06/17 09:47:09;;;;;;;5.25;1.90;;;25.80;89.80;;;;;;5033169;28;20205;-70
2021/06/17 09:49:36;;;;;;;9.45;1.92;;;25.90;90.90;;;;;;5036822;28;20198;-72
2021/06/17 09:52:02;;;;;;;5.97;1.90;;;26.10;90.00;;;;;;5038694;28;20209;-71
2021/06/17 09:54:36;;;;;;;4.28;1.80;;;26.20;90.50;;;;;;5037028;28;20186;-71
2021/06/17 09:57:18;;;;;;;4.68;1.70;;;26.30;90.20;;;;;;5018729;28;20743;-69
2021/06/17 09:59:55;;;;;;;6.38;1.85;;;26.50;90.10;;;;;;5019650;28;20339;-72
2021/06/17 10:02:34;;;;;;;3.13;1.50;;;26.20;87.50;;;;;;5019579;28;20600;-72
2021/06/17 10:05:16;;;;;;;4.75;1.67;;;25.80;90.60;;;;;;5027360;28;20229;-71
2021/06/17 10:07:42;;;;;;;6.68;2.22;;;25.30;90.00;;;;;;5020632;28;20232;-71
2021/06/17 10:10:10;;;;;;;5.43;1.70;;;25.80;90.90;;;;;;5038569;28;20205;-71
2021/06/17 10:12:37;;;;;;;7.20;2.15;;;26.40;88.10;;;;;;5023260;28;20255;-71
2021/06/17 10:15:03;;;;;;;9.60;2.00;;;25.80;85.00;;;;;;5038840;28;20609;-71
2021/06/17 10:17:29;;;;;;;5.10;1.67;;;25.40;84.80;;;;;;5026140;28;20225;-70
2021/06/17 10:19:56;;;;;;;9.02;1.88;;;25.10;87.70;;;;;;5021018;28;20692;-68
2021/06/17 10:22:29;;;;;;;5.75;1.80;;;25.70;86.80;;;;;;5040708;28;20205;-69
2021/06/17 10:24:56;;;;;;;9.70;1.85;;;25.70;84.10;;;;;;5035967;28;20193;-70
2021/06/17 10:27:30;;;;;;;7.38;1.95;;;25.80;84.30;;;;;;5018388;28;20198;-70
2021/06/17 10:29:56;;;;;;;7.45;2.25;;;25.90;84.90;;;;;;5036845;28;20201;-71
2021/06/17 10:32:36;;;;;;;4.68;1.90;;;26.20;84.80;;;;;;5036715;28;20201;-70
2021/06/17 10:35:04;;;;;;;4.38;1.55;;;25.80;81.90;;;;;;5042498;28;20612;-70
2021/06/17 10:37:47;;;;;;;6.10;2.65;;;25.80;82.80;;;;;;5041253;28;20197;-72
2021/06/17 10:40:12;;;;;;;5.35;1.77;;;25.40;83.80;;;;;;5010554;28;20205;-71
2021/06/17 10:42:44;;;;;;;8.48;1.95;;;25.80;82.70;;;;;;5040212;28;20530;-72
2021/06/17 10:45:10;;;;;;;4.75;1.60;;;25.50;81.50;;;;;;5033933;28;20224;-71
2021/06/17 10:47:49;;;;;;;9.13;1.65;;;26.00;83.00;;;;;;5034505;28;20263;-73
2021/06/17 10:50:20;;;;;;;5.43;1.55;;;26.20;76.50;;;;;;5034734;28;20243;-73
2021/06/17 10:53:07;;;;;;;6.93;1.50;;;26.30;79.30;;;;;;5033185;28;20212;-73
2021/06/17 10:55:54;;;;;;;6.03;1.50;;;26.50;77.30;;;;;;5032226;28;20197;-72
2021/06/17 10:58:43;;;;;;;5.72;1.67;;;26.50;81.20;;;;;;5037809;28;20202;-74
2021/06/17 11:01:23;;;;;;;8.50;1.67;;;26.80;78.10;;;;;;5038139;28;20315;-72
2021/06/17 11:04:00;;;;;;;4.65;1.70;;;27.00;81.60;;;;;;5031205;28;20197;-71
2021/06/17 11:06:50;;;;;;;5.38;1.80;;;27.30;76.80;;;;;;5035768;28;20220;-71
2021/06/17 11:09:43;;;;;;;5.57;1.70;;;27.30;77.30;;;;;;5019630;28;20204;-75
2021/06/17 11:12:19;;;;;;;8.70;1.80;;;27.60;75.50;;;;;;4990563;28;20240;-72
2021/06/17 11:14:48;;;;;;;6.75;1.70;;;27.30;74.80;;;;;;5021927;28;20254;-70
2021/06/17 11:17:29;;;;;;;3.63;1.75;;;27.30;73.60;;;;;;5017621;28;20291;-71
2021/06/17 11:20:01;;;;;;;6.35;1.70;;;27.50;79.50;;;;;;5015049;28;20304;-70
2021/06/17 11:22:35;;;;;;;2.92;1.42;;;28.10;77.10;;;;;;5018242;28;20227;-72
2021/06/17 11:25:35;;;;;;;9.45;1.95;;;27.90;74.20;;;;;;5034373;28;20201;-70
2021/06/17 11:28:03;;;;;;;4.05;1.50;;;28.50;72.30;;;;;;5004546;28;20279;-69
2021/06/17 11:30:38;;;;;;;4.70;1.63;;;28.60;74.60;;;;;;5019312;28;20255;-70
2021/06/17 11:33:19;;;;;;;5.78;1.70;;;28.00;71.00;;;;;;5015684;28;20270;-71
2021/06/17 11:35:46;;;;;;;6.38;1.45;;;27.70;73.80;;;;;;5016542;28;20989;-72
2021/06/17 11:38:12;;;;;;;3.58;1.40;;;27.50;72.90;;;;;;5018064;28;20194;-71
2021/06/17 11:40:38;;;;;;;5.95;1.70;;;27.60;75.70;;;;;;5037292;28;20280;-71
2021/06/17 11:43:04;;;;;;;4.70;1.70;;;28.10;74.60;;;;;;5038464;28;20197;-69
2021/06/17 11:45:34;;;;;;;7.85;1.48;;;28.30;71.00;;;;;;5036625;28;20334;-70
2021/06/17 11:48:02;;;;;;;3.88;1.65;;;28.10;71.50;;;;;;5037625;28;20208;-71
2021/06/17 11:50:28;;;;;;;4.72;1.50;;;27.90;73.60;;;;;;5015848;28;20254;-71
2021/06/17 11:52:54;;;;;;;5.43;1.60;;;28.40;73.60;;;;;;5035628;28;20862;-70
2021/06/17 11:55:20;;;;;;;5.07;1.33;;;28.50;73.30;;;;;;5037543;28;20224;-69
2021/06/17 11:57:47;;;;;;;6.28;1.60;;;28.80;72.70;;;;;;5037268;28;20185;-72
2021/06/17 12:00:28;;;;;;;7.22;1.65;;;28.70;70.60;;;;;;5014005;28;21045;-73
2021/06/17 12:02:54;;;;;;;5.20;1.67;;;28.50;69.70;;;;;;5031742;28;20287;-69
2021/06/17 12:05:21;;;;;;;3.20;1.58;;;28.40;70.50;;;;;;5036290;28;20204;-72
2021/06/17 12:07:48;;;;;;;5.13;1.40;;;28.80;73.40;;;;;;5035203;28;20311;-73
2021/06/17 12:10:20;;;;;;;5.00;1.45;;;28.40;73.10;;;;;;5013786;28;20553;-73
2021/06/17 12:12:57;;;;;;;4.63;1.40;;;28.70;71.10;;;;;;5018245;28;20743;-72
2021/06/17 12:15:29;;;;;;;3.17;1.60;;;28.90;72.00;;;;;;5033994;28;20693;-72
2021/06/17 12:17:59;;;;;;;4.65;1.60;;;28.80;71.10;;;;;;5017592;28;20613;-73
2021/06/17 12:20:32;;;;;;;3.60;1.63;;;28.60;69.10;;;;;;5035868;28;20197;-71
2021/06/17 12:23:01;;;;;;;4.90;1.83;;;28.10;73.80;;;;;;5038300;28;20197;-70
2021/06/17 12:25:33;;;;;;;7.00;1.70;;;28.50;73.10;;;;;;5020770;28;20671;-70
2021/06/17 12:28:00;;;;;;;4.50;1.40;;;28.90;70.40;;;;;;5038876;28;20497;-70
2021/06/17 12:30:35;;;;;;;8.23;1.58;;;29.00;68.70;;;;;;5039732;28;20228;-71
2021/06/17 12:33:12;;;;;;;7.35;1.73;;;29.30;70.60;;;;;;5039622;28;20192;-71
2021/06/17 12:35:42;;;;;;;3.58;1.65;;;29.40;67.90;;;;;;5038817;28;20543;-74
2021/06/17 12:38:08;;;;;;;3.05;1.45;;;29.30;67.00;;;;;;5041984;28;20781;-70
2021/06/17 12:40:35;;;;;;;5.18;1.60;;;29.40;69.90;;;;;;5037605;28;20200;-69
2021/06/17 12:43:06;;;;;;;7.05;1.50;;;29.70;70.40;;;;;;5036177;28;20576;-71
2021/06/17 12:45:35;;;;;;;3.50;1.55;;;29.50;67.30;;;;;;5033834;28;20574;-69
2021/06/17 12:48:08;;;;;;;4.18;1.60;;;28.90;67.70;;;;;;5040585;28;20300;-69
2021/06/17 12:53:18;;;;;;;3.83;1.40;;;29.60;69.00;;;;;;5041640;28;20204;-71
2021/06/17 12:55:46;;;;;;;3.33;1.58;;;29.50;67.90;;;;;;5038227;28;20193;-70
2021/06/17 12:58:14;;;;;;;4.53;1.58;;;29.50;71.20;;;;;;5019227;28;20193;-69
2021/06/17 13:00:57;;;;;;;4.50;1.73;;;28.80;69.00;;;;;;5014269;28;20213;-73